createdAt,value
2023-09-14T00:01:28.687Z,19.08
2023-09-14T00:03:56.905Z,19.09
2023-09-14T00:06:24.996Z,19.08
2023-09-14T00:08:53.096Z,19.07
2023-09-14T00:11:20.932Z,19.06
2023-09-14T00:13:49.177Z,19.04
2023-09-14T00:16:17.424Z,19.01
2023-09-14T00:18:45.743Z,18.99
2023-09-14T00:21:13.930Z,18.96
2023-09-14T00:23:41.865Z,18.91
2023-09-14T00:26:09.926Z,18.86
2023-09-14T00:28:39.039Z,18.81
2023-09-14T00:31:06.942Z,18.76
2023-09-14T00:33:34.976Z,18.70
2023-09-14T00:36:02.809Z,18.66
2023-09-14T00:38:30.638Z,18.61
2023-09-14T00:40:58.486Z,18.57
2023-09-14T00:43:26.373Z,18.53
2023-09-14T00:45:54.940Z,18.47
2023-09-14T00:48:22.987Z,18.42
2023-09-14T00:50:51.043Z,18.38
2023-09-14T00:53:21.119Z,18.35
2023-09-14T00:55:49.017Z,18.33
2023-09-14T00:58:17.740Z,18.30
2023-09-14T01:00:47.322Z,18.28
2023-09-14T01:03:16.347Z,18.25
2023-09-14T01:05:45.663Z,18.19
2023-09-14T01:08:13.714Z,18.14
2023-09-14T01:10:41.759Z,18.10
2023-09-14T01:13:15.170Z,18.07
2023-09-14T01:15:47.942Z,18.02
2023-09-14T01:18:24.411Z,17.94
2023-09-14T01:20:55.657Z,17.89
2023-09-14T01:23:30.179Z,17.83
2023-09-14T01:25:59.467Z,17.78
2023-09-14T01:28:27.371Z,17.72
2023-09-14T01:30:55.538Z,17.69
2023-09-14T01:33:26.155Z,17.65
2023-09-14T01:36:09.169Z,17.61
2023-09-14T01:38:37.347Z,17.56
2023-09-14T01:41:05.747Z,17.53
2023-09-14T01:43:34.433Z,17.50
2023-09-14T01:46:03.479Z,17.47
2023-09-14T01:48:32.531Z,17.45
2023-09-14T01:51:00.562Z,17.45
2023-09-14T01:53:28.565Z,17.46
2023-09-14T01:55:56.412Z,17.47
2023-09-14T01:58:24.766Z,17.47
2023-09-14T02:00:52.973Z,17.46
2023-09-14T02:03:21.134Z,17.44
2023-09-14T02:06:00.217Z,17.43
2023-09-14T02:08:28.852Z,17.42
2023-09-14T02:10:59.583Z,17.39
2023-09-14T02:13:29.015Z,17.38
2023-09-14T02:15:56.955Z,17.38
2023-09-14T02:18:24.955Z,17.39
2023-09-14T02:20:53.110Z,17.39
2023-09-14T02:23:21.032Z,17.37
2023-09-14T02:25:50.470Z,17.37
2023-09-14T02:28:20.859Z,17.35
2023-09-14T02:30:49.435Z,17.32
2023-09-14T02:33:17.402Z,17.28
2023-09-14T02:35:52.544Z,17.24
2023-09-14T02:38:20.658Z,17.23
2023-09-14T02:40:48.756Z,17.21
2023-09-14T02:43:16.958Z,17.17
2023-09-14T02:45:45.196Z,17.13
2023-09-14T02:48:13.980Z,17.08
2023-09-14T02:50:43.401Z,17.03
2023-09-14T02:53:11.208Z,16.97
2023-09-14T02:55:39.205Z,16.92
2023-09-14T02:58:08.776Z,16.87
2023-09-14T03:00:40.745Z,16.80
2023-09-14T03:03:11.377Z,16.77
2023-09-14T03:05:40.873Z,16.75
2023-09-14T03:08:09.060Z,16.74
2023-09-14T03:10:37.639Z,16.72
2023-09-14T03:13:05.758Z,16.70
2023-09-14T03:15:36.058Z,16.69
2023-09-14T03:18:04.838Z,16.68
2023-09-14T03:20:33.670Z,16.67
2023-09-14T03:23:03.548Z,16.65
2023-09-14T03:25:32.371Z,16.62
2023-09-14T03:28:00.430Z,16.60
2023-09-14T03:30:28.702Z,16.57
2023-09-14T03:32:56.528Z,16.55
2023-09-14T03:35:24.432Z,16.52
2023-09-14T03:37:52.432Z,16.50
2023-09-14T03:40:20.462Z,16.49
2023-09-14T03:42:49.476Z,16.47
2023-09-14T03:45:17.356Z,16.45
2023-09-14T03:47:45.437Z,16.43
2023-09-14T03:50:13.689Z,16.43
2023-09-14T03:52:41.653Z,16.44
2023-09-14T03:55:09.949Z,16.46
2023-09-14T03:57:38.232Z,16.47
2023-09-14T04:00:12.525Z,16.50
2023-09-14T04:02:44.087Z,16.53
2023-09-14T04:05:17.261Z,16.55
2023-09-14T04:07:45.654Z,16.56
2023-09-14T04:10:13.942Z,16.55
2023-09-14T04:12:42.746Z,16.54
2023-09-14T04:15:11.401Z,16.54
2023-09-14T04:17:39.716Z,16.55
2023-09-14T04:20:11.368Z,16.57
2023-09-14T04:22:40.255Z,16.58
2023-09-14T04:25:08.924Z,16.58
2023-09-14T04:27:37.766Z,16.56
2023-09-14T04:30:06.934Z,16.56
2023-09-14T04:32:35.119Z,16.58
2023-09-14T04:35:03.241Z,16.61
2023-09-14T04:37:32.923Z,16.64
2023-09-14T04:40:01.377Z,16.65
2023-09-14T04:42:29.369Z,16.66
2023-09-14T04:44:59.358Z,16.68
2023-09-14T04:47:27.331Z,16.70
2023-09-14T04:49:55.410Z,16.72
2023-09-14T04:52:23.364Z,16.73
2023-09-14T04:54:51.484Z,16.74
2023-09-14T04:57:19.825Z,16.75
2023-09-14T04:59:47.639Z,16.76
2023-09-14T05:02:16.562Z,16.76
2023-09-14T05:04:44.702Z,16.76
2023-09-14T05:07:12.726Z,16.77
2023-09-14T05:09:41.076Z,16.78
2023-09-14T05:12:09.649Z,16.79
2023-09-14T05:14:37.510Z,16.81
2023-09-14T05:17:05.489Z,16.82
2023-09-14T05:19:35.005Z,16.83
2023-09-14T05:22:03.050Z,16.85
2023-09-14T05:24:31.230Z,16.87
2023-09-14T05:27:00.585Z,16.88
2023-09-14T05:29:28.632Z,16.90
2023-09-14T05:31:57.682Z,16.92
2023-09-14T05:34:26.099Z,16.95
2023-09-14T05:36:54.289Z,17.01
2023-09-14T05:39:22.545Z,17.07
2023-09-14T05:41:52.009Z,17.12
2023-09-14T05:44:20.182Z,17.18
2023-09-14T05:46:48.817Z,17.23
2023-09-14T05:49:16.814Z,17.31
2023-09-14T05:51:44.783Z,17.39
2023-09-14T05:54:13.047Z,17.45
2023-09-14T05:56:41.093Z,17.53
2023-09-14T05:59:21.445Z,17.63
2023-09-14T06:01:54.374Z,17.74
2023-09-14T06:04:22.356Z,17.86
2023-09-14T06:06:51.017Z,17.99
2023-09-14T06:09:19.055Z,18.10
2023-09-14T06:11:47.542Z,18.23
2023-09-14T06:14:15.402Z,18.34
2023-09-14T06:16:43.470Z,18.45
2023-09-14T06:19:11.494Z,18.57
2023-09-14T06:21:39.766Z,18.69
2023-09-14T06:24:07.705Z,18.82
2023-09-14T06:26:35.664Z,18.94
2023-09-14T06:29:03.481Z,19.07
2023-09-14T06:31:31.601Z,19.20
2023-09-14T06:33:59.781Z,19.32
2023-09-14T06:36:27.613Z,19.44
2023-09-14T06:38:55.419Z,19.54
2023-09-14T06:41:23.594Z,19.64
2023-09-14T06:43:51.582Z,19.74
2023-09-14T06:46:19.460Z,19.82
2023-09-14T06:48:47.371Z,19.89
2023-09-14T06:51:15.463Z,19.97
2023-09-14T06:53:43.740Z,20.03
2023-09-14T06:56:12.430Z,20.09
2023-09-14T06:58:40.582Z,20.15
2023-09-14T07:01:09.147Z,20.22
2023-09-14T07:03:40.772Z,20.29
2023-09-14T07:06:09.213Z,20.36
2023-09-14T07:08:42.014Z,20.43
2023-09-14T07:11:10.476Z,20.49
2023-09-14T07:13:38.546Z,20.57
2023-09-14T07:16:06.583Z,20.64
2023-09-14T07:18:35.820Z,20.70
2023-09-14T07:21:04.198Z,20.76
2023-09-14T07:23:32.374Z,20.82
2023-09-14T07:26:00.345Z,20.89
2023-09-14T07:28:28.321Z,20.98
2023-09-14T07:30:56.274Z,21.05
2023-09-14T07:33:27.040Z,21.14
2023-09-14T07:35:55.185Z,21.24
2023-09-14T07:38:23.156Z,21.34
2023-09-14T07:40:51.159Z,21.43
2023-09-14T07:43:19.751Z,21.53
2023-09-14T07:45:47.843Z,21.61
2023-09-14T07:48:16.467Z,21.71
2023-09-14T07:50:44.480Z,21.80
2023-09-14T07:53:12.621Z,21.90
2023-09-14T07:55:40.715Z,21.99
2023-09-14T07:58:09.200Z,22.08
2023-09-14T08:00:37.867Z,22.18
2023-09-14T08:03:05.900Z,22.27
2023-09-14T08:05:34.319Z,22.35
2023-09-14T08:08:04.254Z,22.41
2023-09-14T08:10:32.628Z,22.48
2023-09-14T08:13:01.975Z,22.56
2023-09-14T08:15:30.337Z,22.67
2023-09-14T08:17:58.267Z,22.78
2023-09-14T08:20:26.327Z,22.90
2023-09-14T08:22:54.209Z,23.03
2023-09-14T08:25:22.298Z,23.16
2023-09-14T08:27:50.486Z,23.28
2023-09-14T08:30:18.505Z,23.38
2023-09-14T08:32:46.637Z,23.50
2023-09-14T08:35:21.922Z,23.62
2023-09-14T08:37:50.198Z,23.72
2023-09-14T08:40:20.158Z,23.84
2023-09-14T08:42:53.045Z,23.97
2023-09-14T08:45:24.536Z,24.12
2023-09-14T08:47:52.809Z,24.22
2023-09-14T08:50:22.643Z,24.29
2023-09-14T08:52:50.659Z,24.36
2023-09-14T08:55:19.843Z,24.45
2023-09-14T08:57:48.750Z,24.53
2023-09-14T09:00:17.176Z,24.63
2023-09-14T09:02:49.416Z,24.76
2023-09-14T09:05:18.282Z,24.89
2023-09-14T09:07:48.882Z,25.00
2023-09-14T09:10:22.336Z,25.16
2023-09-14T09:12:50.995Z,25.30
2023-09-14T09:15:19.239Z,25.42
2023-09-14T09:17:47.234Z,25.51
2023-09-14T09:20:24.247Z,25.59
2023-09-14T09:22:53.698Z,25.67
2023-09-14T09:25:23.286Z,25.69
2023-09-14T09:27:58.223Z,25.72
2023-09-14T09:30:35.981Z,25.79
2023-09-14T09:33:05.801Z,25.87
2023-09-14T09:35:35.756Z,25.91
2023-09-14T09:38:12.220Z,25.95
2023-09-14T09:40:44.041Z,26.05
2023-09-14T09:43:21.248Z,26.14
2023-09-14T09:45:49.686Z,26.26
2023-09-14T09:48:17.759Z,26.37
2023-09-14T09:50:46.894Z,26.45
2023-09-14T09:53:16.454Z,26.50
2023-09-14T09:55:46.985Z,26.56
2023-09-14T09:58:18.552Z,26.65
2023-09-14T10:00:46.957Z,26.73
2023-09-14T10:03:17.499Z,26.78
2023-09-14T10:05:46.077Z,26.81
2023-09-14T10:08:21.093Z,26.78
2023-09-14T10:10:52.897Z,26.79
2023-09-14T10:13:23.473Z,26.78
2023-09-14T10:15:53.232Z,26.82
2023-09-14T10:18:26.253Z,26.91
2023-09-14T10:20:55.106Z,27.00
2023-09-14T10:23:23.863Z,27.08
2023-09-14T10:25:52.955Z,27.20
2023-09-14T10:28:21.731Z,27.35
2023-09-14T10:30:51.195Z,27.53
2023-09-14T10:33:21.054Z,27.71
2023-09-14T10:35:50.407Z,27.86
2023-09-14T10:38:19.701Z,28.02
2023-09-14T10:40:47.919Z,28.18
2023-09-14T10:43:15.895Z,28.31
2023-09-14T10:45:45.144Z,28.42
2023-09-14T10:48:17.585Z,28.50
2023-09-14T10:50:46.201Z,28.58
2023-09-14T10:53:14.789Z,28.63
2023-09-14T10:55:43.234Z,28.71
2023-09-14T10:58:17.470Z,28.79
2023-09-14T11:03:24.117Z,29.07
2023-09-14T11:05:55.243Z,29.22
2023-09-14T11:08:28.287Z,29.27
2023-09-14T11:11:03.889Z,29.38
2023-09-14T11:13:37.130Z,29.47
2023-09-14T11:16:18.478Z,29.54
2023-09-14T11:18:47.984Z,29.64
2023-09-14T11:21:37.907Z,29.75
2023-09-14T11:24:09.305Z,29.85
2023-09-14T11:26:45.005Z,29.95
2023-09-14T11:29:14.249Z,30.03
2023-09-14T11:31:58.831Z,30.08
2023-09-14T11:34:33.402Z,30.13
2023-09-14T11:37:07.034Z,30.18
2023-09-14T11:39:42.576Z,30.28
2023-09-14T11:42:15.968Z,30.43
2023-09-14T11:44:52.270Z,30.51
2023-09-14T11:47:22.657Z,30.63
2023-09-14T11:49:58.915Z,30.76
2023-09-14T11:52:27.925Z,30.91
2023-09-14T11:54:55.797Z,30.93
2023-09-14T11:57:27.721Z,31.02
2023-09-14T11:59:55.780Z,31.10
2023-09-14T12:02:23.953Z,31.11
2023-09-14T12:04:53.446Z,31.00
2023-09-14T12:07:24.569Z,30.97
2023-09-14T12:09:53.128Z,31.08
2023-09-14T12:12:30.728Z,31.23
2023-09-14T12:14:59.629Z,31.40
2023-09-14T12:17:29.306Z,31.56
2023-09-14T12:20:01.010Z,31.79
2023-09-14T12:22:32.103Z,32.06
2023-09-14T12:25:01.193Z,32.34
2023-09-14T12:27:30.037Z,32.60
2023-09-14T12:29:58.513Z,32.72
2023-09-14T12:32:26.937Z,32.86
2023-09-14T12:34:55.132Z,32.90
2023-09-14T12:37:23.988Z,32.87
2023-09-14T12:39:54.784Z,32.83
2023-09-14T12:42:23.956Z,32.92
2023-09-14T12:44:53.879Z,32.83
2023-09-14T12:47:21.962Z,32.50
2023-09-14T12:49:50.306Z,32.20
2023-09-14T12:52:20.322Z,32.12
2023-09-14T12:54:49.145Z,32.03
2023-09-14T12:57:21.008Z,31.90
2023-09-14T13:00:01.049Z,31.65
2023-09-14T13:02:29.321Z,31.29
2023-09-14T13:04:57.785Z,30.71
2023-09-14T13:07:25.697Z,30.28
2023-09-14T13:10:23.235Z,30.05
2023-09-14T13:12:53.101Z,29.89
2023-09-14T13:15:24.956Z,29.78
2023-09-14T13:17:54.985Z,29.68
2023-09-14T13:20:25.491Z,29.57
2023-09-14T13:22:54.231Z,29.47
2023-09-14T13:25:28.007Z,29.37
2023-09-14T13:27:57.209Z,29.25
2023-09-14T13:30:28.890Z,29.15
2023-09-14T13:32:57.539Z,29.05
2023-09-14T13:35:26.953Z,28.90
2023-09-14T13:37:57.917Z,28.78
2023-09-14T13:40:27.466Z,28.64
2023-09-14T13:42:59.008Z,28.45
2023-09-14T13:45:28.475Z,28.15
2023-09-14T13:47:56.932Z,27.99
2023-09-14T13:50:24.912Z,27.90
2023-09-14T13:52:52.745Z,27.76
2023-09-14T13:55:20.898Z,27.80
2023-09-14T13:57:49.818Z,28.16
2023-09-14T14:00:18.846Z,28.60
2023-09-14T14:02:48.426Z,28.82
2023-09-14T14:05:17.146Z,28.91
2023-09-14T14:07:45.364Z,28.94
2023-09-14T14:10:13.312Z,28.93
2023-09-14T14:12:41.410Z,28.92
2023-09-14T14:15:12.865Z,28.88
2023-09-14T14:17:41.760Z,28.83
2023-09-14T14:20:11.192Z,28.68
2023-09-14T14:22:39.606Z,28.51
2023-09-14T14:25:07.807Z,28.25
2023-09-14T14:27:40.590Z,28.03
2023-09-14T14:30:10.157Z,27.77
2023-09-14T14:32:38.392Z,27.58
2023-09-14T14:35:07.513Z,27.45
2023-09-14T14:37:35.513Z,27.35
2023-09-14T14:40:05.315Z,27.28
2023-09-14T14:42:33.806Z,27.21
2023-09-14T14:45:01.900Z,27.13
2023-09-14T14:47:29.802Z,27.05
2023-09-14T14:49:57.644Z,26.97
2023-09-14T14:52:25.672Z,26.88
2023-09-14T14:54:53.793Z,26.83
2023-09-14T14:57:21.622Z,26.80
2023-09-14T14:59:49.501Z,26.77
2023-09-14T15:02:17.330Z,26.75
2023-09-14T15:04:45.437Z,26.72
2023-09-14T15:07:13.302Z,26.69
2023-09-14T15:09:41.282Z,26.66
2023-09-14T15:12:09.344Z,26.61
2023-09-14T15:14:37.390Z,26.54
2023-09-14T15:17:05.466Z,26.48
2023-09-14T15:19:33.760Z,26.45
2023-09-14T15:22:02.626Z,26.40
2023-09-14T15:24:30.735Z,26.36
2023-09-14T15:26:59.498Z,26.32
2023-09-14T15:29:27.332Z,26.28
2023-09-14T15:31:55.275Z,26.24
2023-09-14T15:34:25.746Z,26.18
2023-09-14T15:36:53.604Z,26.14
2023-09-14T15:39:22.311Z,26.10
2023-09-14T15:41:51.676Z,26.07
2023-09-14T15:44:20.092Z,26.03
2023-09-14T15:46:48.093Z,25.99
2023-09-14T15:49:17.957Z,25.95
2023-09-14T15:51:46.202Z,25.92
2023-09-14T15:54:16.919Z,25.88
2023-09-14T15:56:45.258Z,25.83
2023-09-14T15:59:14.610Z,25.79
2023-09-14T16:01:42.572Z,25.75
2023-09-14T16:04:10.805Z,25.69
2023-09-14T16:06:39.058Z,25.62
2023-09-14T16:09:11.529Z,25.55
2023-09-14T16:11:39.537Z,25.50
2023-09-14T16:14:09.752Z,25.47
2023-09-14T16:16:38.450Z,25.44
2023-09-14T16:19:06.393Z,25.41
2023-09-14T16:21:34.525Z,25.37
2023-09-14T16:24:03.068Z,25.35
2023-09-14T16:26:31.141Z,25.32
2023-09-14T16:28:59.211Z,25.28
2023-09-14T16:31:28.088Z,25.23
2023-09-14T16:33:57.420Z,25.19
2023-09-14T16:36:25.672Z,25.15
2023-09-14T16:38:59.587Z,25.09
2023-09-14T16:41:27.658Z,25.02
2023-09-14T16:43:55.584Z,24.97
2023-09-14T16:46:23.550Z,24.91
2023-09-14T16:48:51.710Z,24.84
2023-09-14T16:51:19.575Z,24.76
2023-09-14T16:53:47.408Z,24.68
2023-09-14T16:56:15.401Z,24.64
2023-09-14T16:58:43.337Z,24.60
2023-09-14T17:01:12.747Z,24.57
2023-09-14T17:03:40.930Z,24.54
2023-09-14T17:06:09.340Z,24.51
2023-09-14T17:08:37.364Z,24.47
2023-09-14T17:11:05.447Z,24.43
2023-09-14T17:13:33.668Z,24.40
2023-09-14T17:16:01.626Z,24.37
2023-09-14T17:18:29.821Z,24.32
2023-09-14T17:20:57.810Z,24.28
2023-09-14T17:23:25.665Z,24.22
2023-09-14T17:25:55.029Z,24.16
2023-09-14T17:28:26.469Z,24.08
2023-09-14T17:30:56.321Z,24.01
2023-09-14T17:33:24.543Z,23.95
2023-09-14T17:35:52.615Z,23.86
2023-09-14T17:38:24.197Z,23.80
2023-09-14T17:40:52.079Z,23.72
2023-09-14T17:43:19.967Z,23.66
2023-09-14T17:45:47.880Z,23.60
2023-09-14T17:48:16.154Z,23.54
2023-09-14T17:50:44.440Z,23.49
2023-09-14T17:53:13.823Z,23.42
2023-09-14T17:55:41.995Z,23.36
2023-09-14T17:58:11.352Z,23.33
2023-09-14T18:00:39.482Z,23.30
2023-09-14T18:03:13.687Z,23.28
2023-09-14T18:05:45.654Z,23.27
2023-09-14T18:08:13.992Z,23.24
2023-09-14T18:10:42.713Z,23.21
2023-09-14T18:13:10.837Z,23.17
2023-09-14T18:15:39.285Z,23.14
2023-09-14T18:18:07.814Z,23.12
2023-09-14T18:20:38.795Z,23.08
2023-09-14T18:23:06.870Z,23.05
2023-09-14T18:25:35.122Z,23.04
2023-09-14T18:28:05.287Z,23.01
2023-09-14T18:30:33.356Z,22.98
2023-09-14T18:33:02.333Z,22.96
2023-09-14T18:35:30.596Z,22.94
2023-09-14T18:38:00.233Z,22.92
2023-09-14T18:40:29.371Z,22.89
2023-09-14T18:42:58.845Z,22.86
2023-09-14T18:45:27.599Z,22.85
2023-09-14T18:47:58.544Z,22.84
2023-09-14T18:50:26.659Z,22.80
2023-09-14T18:52:54.475Z,22.75
2023-09-14T18:55:23.608Z,22.72
2023-09-14T18:57:53.799Z,22.69
2023-09-14T19:00:22.119Z,22.64
2023-09-14T19:02:50.161Z,22.58
2023-09-14T19:05:18.866Z,22.53
2023-09-14T19:07:48.199Z,22.49
2023-09-14T19:10:16.629Z,22.47
2023-09-14T19:12:46.963Z,22.45
2023-09-14T19:15:15.103Z,22.44
2023-09-14T19:17:44.176Z,22.43
2023-09-14T19:20:12.581Z,22.42
2023-09-14T19:22:41.546Z,22.41
2023-09-14T19:25:09.601Z,22.40
2023-09-14T19:27:37.735Z,22.41
2023-09-14T19:30:06.427Z,22.40
2023-09-14T19:32:34.619Z,22.39
2023-09-14T19:35:03.507Z,22.38
2023-09-14T19:37:31.421Z,22.38
2023-09-14T19:39:59.258Z,22.38
2023-09-14T19:42:27.374Z,22.39
2023-09-14T19:44:59.666Z,22.40
2023-09-14T19:47:28.352Z,22.42
2023-09-14T19:49:56.445Z,22.43
2023-09-14T19:52:24.787Z,22.42
2023-09-14T19:54:52.714Z,22.41
2023-09-14T19:57:20.722Z,22.40
2023-09-14T19:59:49.732Z,22.38
2023-09-14T20:02:19.760Z,22.36
2023-09-14T20:04:48.221Z,22.34
2023-09-14T20:07:16.220Z,22.33
2023-09-14T20:09:44.298Z,22.32
2023-09-14T20:12:17.366Z,22.30
2023-09-14T20:14:45.968Z,22.29
2023-09-14T20:17:17.095Z,22.28
2023-09-14T20:19:45.211Z,22.26
2023-09-14T20:22:13.213Z,22.24
2023-09-14T20:24:41.424Z,22.20
2023-09-14T20:27:09.503Z,22.15
2023-09-14T20:29:37.432Z,22.09
2023-09-14T20:32:05.315Z,22.04
2023-09-14T20:34:33.272Z,21.99
2023-09-14T20:37:01.860Z,21.94
2023-09-14T20:39:30.143Z,21.89
2023-09-14T20:41:58.416Z,21.85
2023-09-14T20:44:26.687Z,21.80
2023-09-14T20:46:54.647Z,21.72
2023-09-14T20:49:22.967Z,21.66
2023-09-14T20:51:51.012Z,21.60
2023-09-14T20:54:21.011Z,21.55
2023-09-14T20:56:49.291Z,21.49
2023-09-14T20:59:18.975Z,21.46
2023-09-14T21:01:47.284Z,21.43
2023-09-14T21:04:16.134Z,21.42
2023-09-14T21:06:44.472Z,21.39
2023-09-14T21:09:12.520Z,21.36
2023-09-14T21:11:40.319Z,21.32
2023-09-14T21:14:08.433Z,21.26
2023-09-14T21:16:37.345Z,21.20
2023-09-14T21:19:08.925Z,21.16
2023-09-14T21:21:37.878Z,21.10
2023-09-14T21:24:06.196Z,21.06
2023-09-14T21:26:34.352Z,21.01
2023-09-14T21:29:02.334Z,20.95
2023-09-14T21:31:31.383Z,20.91
2023-09-14T21:33:59.309Z,20.87
2023-09-14T21:36:27.563Z,20.85
2023-09-14T21:38:55.426Z,20.84
2023-09-14T21:41:23.390Z,20.83
2023-09-14T21:43:51.348Z,20.82
2023-09-14T21:46:19.396Z,20.81
2023-09-14T21:48:47.735Z,20.80
2023-09-14T21:51:16.301Z,20.78
2023-09-14T21:53:44.466Z,20.77
2023-09-14T21:56:12.444Z,20.77
2023-09-14T21:58:40.324Z,20.77
2023-09-14T22:01:08.187Z,20.77
2023-09-14T22:03:50.432Z,20.77
2023-09-14T22:08:51.216Z,20.70
2023-09-14T22:11:19.094Z,20.69
2023-09-14T22:13:46.983Z,20.68
2023-09-14T22:16:15.084Z,20.65
2023-09-14T22:18:43.729Z,20.61
2023-09-14T22:21:15.487Z,20.58
2023-09-14T22:23:43.752Z,20.53
2023-09-14T22:26:11.690Z,20.50
2023-09-14T22:28:39.666Z,20.44
2023-09-14T22:31:12.335Z,20.39
2023-09-14T22:33:46.927Z,20.35
2023-09-14T22:36:14.975Z,20.31
2023-09-14T22:38:43.771Z,20.29
2023-09-14T22:41:11.739Z,20.25
2023-09-14T22:43:39.582Z,20.21
2023-09-14T22:46:11.053Z,20.17
2023-09-14T22:48:40.008Z,20.14
2023-09-14T22:51:14.806Z,20.09
2023-09-14T22:53:42.980Z,20.06
2023-09-14T22:56:17.029Z,20.05
2023-09-14T22:58:51.882Z,20.02
2023-09-14T23:01:20.994Z,19.98
2023-09-14T23:06:17.023Z,19.86
2023-09-14T23:08:47.909Z,19.81
2023-09-14T23:11:25.413Z,19.77
2023-09-14T23:13:53.643Z,19.74
2023-09-14T23:16:28.801Z,19.71
2023-09-14T23:18:57.986Z,19.67
2023-09-14T23:21:27.103Z,19.63
2023-09-14T23:23:56.872Z,19.60
2023-09-14T23:26:24.727Z,19.55
2023-09-14T23:28:53.429Z,19.51
2023-09-14T23:31:21.516Z,19.47
2023-09-14T23:33:49.605Z,19.44
2023-09-14T23:36:17.673Z,19.42
2023-09-14T23:38:46.476Z,19.42
2023-09-14T23:41:14.755Z,19.44
2023-09-14T23:43:42.682Z,19.44
2023-09-14T23:46:12.654Z,19.44
2023-09-14T23:48:42.098Z,19.44
2023-09-14T23:51:10.164Z,19.45
2023-09-14T23:53:39.289Z,19.43
2023-09-14T23:56:08.086Z,19.42
2023-09-14T23:58:36.122Z,19.44
